Time;durP1;ratioP1;P1;durP2;ratioP2;P2;SDS_P1;SDS_P2;PMS_P1;PMS_P2;Temp;Humidity;BMP_temperature;BMP_pressure;BME280_temperature;BME280_humidity;BME280_pressure;Samples;Min_cycle;Max_cycle;Signal;HPM_P1;HPM_P2
2023/12/15 00:01:15;;;;;;;160.98;106.20;;;19.50;71.90;;;;;;4949839;28;20035;-65
2023/12/15 00:03:41;;;;;;;144.82;97.80;;;19.50;71.50;;;;;;4949892;28;20114;-65
2023/12/15 00:06:07;;;;;;;167.07;111.32;;;19.50;71.80;;;;;;4949157;28;20118;-64
2023/12/15 00:08:32;;;;;;;152.20;103.85;;;19.60;71.40;;;;;;4949791;28;20028;-64
2023/12/15 00:10:59;;;;;;;147.30;98.65;;;19.50;71.40;;;;;;4949992;28;20102;-64
2023/12/15 00:13:25;;;;;;;146.18;97.63;;;19.60;71.70;;;;;;4949458;28;20363;-63
2023/12/15 00:15:50;;;;;;;138.95;91.25;;;19.60;71.80;;;;;;4948007;28;20034;-60
2023/12/15 00:18:16;;;;;;;131.65;88.03;;;19.60;72.10;;;;;;4966242;28;20043;-64
2023/12/15 00:20:42;;;;;;;141.18;94.85;;;19.50;72.20;;;;;;4949496;28;20023;-64
2023/12/15 00:23:08;;;;;;;129.82;87.10;;;19.60;71.90;;;;;;4949905;28;20237;-63
2023/12/15 00:25:33;;;;;;;124.03;85.60;;;19.50;72.10;;;;;;4948885;28;20368;-63
2023/12/15 00:27:59;;;;;;;142.05;93.10;;;19.60;72.30;;;;;;4949839;28;20023;-62
2023/12/15 00:30:24;;;;;;;119.57;78.75;;;19.50;72.00;;;;;;4949990;28;20625;-63
2023/12/15 00:32:50;;;;;;;117.95;78.05;;;19.60;72.40;;;;;;4949876;28;20034;-63
2023/12/15 00:35:15;;;;;;;134.20;88.05;;;19.60;72.30;;;;;;4949119;28;20031;-62
2023/12/15 00:37:41;;;;;;;120.85;79.53;;;19.60;72.00;;;;;;4949597;28;20035;-61
2023/12/15 00:40:10;;;;;;;118.13;79.53;;;19.60;72.20;;;;;;4952234;28;20031;-61
2023/12/15 00:42:35;;;;;;;132.35;86.18;;;19.60;72.40;;;;;;4953134;28;20043;-61
2023/12/15 00:45:01;;;;;;;118.97;80.05;;;19.60;72.40;;;;;;4952886;28;20027;-58
2023/12/15 00:47:26;;;;;;;107.22;72.68;;;19.60;72.50;;;;;;4952541;28;20035;-58
2023/12/15 00:49:52;;;;;;;103.32;70.95;;;19.60;72.70;;;;;;4944730;28;20030;-59
2023/12/15 00:52:18;;;;;;;119.53;80.68;;;19.60;72.80;;;;;;4952958;28;20077;-60
2023/12/15 00:54:43;;;;;;;122.00;82.80;;;19.60;72.80;;;;;;4952290;28;20053;-58
2023/12/15 00:57:09;;;;;;;93.38;61.63;;;19.60;73.10;;;;;;4952476;28;20051;-58
2023/12/15 00:59:35;;;;;;;95.20;62.90;;;19.60;73.30;;;;;;4952794;28;20430;-62
2023/12/15 01:02:00;;;;;;;101.03;69.32;;;19.60;73.40;;;;;;4952484;28;20024;-62
2023/12/15 01:04:26;;;;;;;117.88;76.78;;;19.50;73.40;;;;;;4952262;28;20027;-62
2023/12/15 01:06:51;;;;;;;119.80;82.68;;;19.60;73.10;;;;;;4952396;28;20080;-62
2023/12/15 01:09:17;;;;;;;105.82;71.93;;;19.60;72.80;;;;;;4952570;28;20084;-61
2023/12/15 01:11:43;;;;;;;114.43;76.07;;;19.60;73.10;;;;;;4952137;28;20030;-59
2023/12/15 01:14:08;;;;;;;109.40;73.18;;;19.60;73.00;;;;;;4952162;28;20039;-61
2023/12/15 01:16:34;;;;;;;106.30;70.50;;;19.60;73.10;;;;;;4950643;28;20031;-60
2023/12/15 01:18:59;;;;;;;107.15;67.72;;;19.60;73.70;;;;;;4953177;28;20038;-60
2023/12/15 01:21:25;;;;;;;102.07;67.25;;;19.60;73.70;;;;;;4952335;28;20034;-58
2023/12/15 01:23:51;;;;;;;101.45;64.97;;;19.60;73.50;;;;;;4951568;28;20027;-59
2023/12/15 01:26:18;;;;;;;96.47;64.05;;;19.60;73.70;;;;;;4951671;28;20038;-58
2023/12/15 01:28:43;;;;;;;98.68;67.43;;;19.60;73.60;;;;;;4952256;28;20027;-59
2023/12/15 01:31:09;;;;;;;99.93;66.05;;;19.60;73.50;;;;;;4952303;28;20020;-60
2023/12/15 01:33:35;;;;;;;101.57;67.97;;;19.60;73.40;;;;;;4952106;28;20028;-60
2023/12/15 01:36:00;;;;;;;98.93;65.22;;;19.60;73.10;;;;;;4951396;28;20023;-58
2023/12/15 01:38:26;;;;;;;93.82;61.33;;;19.60;73.50;;;;;;4952228;28;20107;-59
2023/12/15 01:40:51;;;;;;;95.60;63.38;;;19.60;73.60;;;;;;4952191;28;20027;-58
2023/12/15 01:43:17;;;;;;;98.50;65.30;;;19.60;73.20;;;;;;4952044;28;20123;-59
2023/12/15 01:45:43;;;;;;;95.72;62.97;;;19.60;73.30;;;;;;4951041;28;20046;-58
2023/12/15 01:48:09;;;;;;;87.20;56.33;;;19.60;73.60;;;;;;4933807;29;20483;-62
2023/12/15 01:50:35;;;;;;;83.63;55.80;;;19.60;73.90;;;;;;4951346;28;20030;-58
2023/12/15 01:53:00;;;;;;;93.68;58.17;;;19.70;73.90;;;;;;4952028;28;20023;-59
2023/12/15 01:55:26;;;;;;;87.82;58.55;;;19.60;74.10;;;;;;4951199;28;20074;-58
2023/12/15 01:57:51;;;;;;;96.20;62.53;;;19.70;73.70;;;;;;4951573;28;20034;-58
2023/12/15 02:00:17;;;;;;;78.72;50.72;;;19.70;73.40;;;;;;4951974;28;20038;-59
2023/12/15 02:02:43;;;;;;;93.50;60.50;;;19.70;73.80;;;;;;4951553;28;20042;-58
2023/12/15 02:05:09;;;;;;;94.15;59.50;;;19.70;73.50;;;;;;4951242;28;20024;-60
2023/12/15 02:07:34;;;;;;;93.28;61.42;;;19.70;73.60;;;;;;4951629;28;20391;-59
2023/12/15 02:10:00;;;;;;;77.43;52.92;;;19.70;73.30;;;;;;4951699;28;20031;-59
2023/12/15 02:12:25;;;;;;;78.75;51.47;;;19.70;73.70;;;;;;4951807;28;20077;-59
2023/12/15 02:14:51;;;;;;;83.55;55.83;;;19.70;73.60;;;;;;4951178;28;20085;-59
2023/12/15 02:17:17;;;;;;;80.93;54.70;;;19.70;73.30;;;;;;4950259;28;20498;-59
2023/12/15 02:19:42;;;;;;;75.20;50.28;;;19.70;73.40;;;;;;4951527;28;20027;-60
2023/12/15 02:22:08;;;;;;;82.15;54.40;;;19.70;73.60;;;;;;4951571;28;20081;-61
2023/12/15 02:24:34;;;;;;;75.47;51.20;;;19.70;73.30;;;;;;4950042;28;20027;-59
2023/12/15 02:26:59;;;;;;;77.30;50.97;;;19.70;73.30;;;;;;4951277;28;20061;-59
2023/12/15 02:29:26;;;;;;;83.40;55.10;;;19.70;73.40;;;;;;4951534;28;20043;-59
2023/12/15 02:31:52;;;;;;;73.82;48.42;;;19.70;73.40;;;;;;4950829;28;20020;-59
2023/12/15 02:34:18;;;;;;;79.82;51.50;;;19.70;73.50;;;;;;4951002;28;20080;-59
2023/12/15 02:36:43;;;;;;;74.57;48.92;;;19.70;73.60;;;;;;4958390;28;20035;-58
2023/12/15 02:39:09;;;;;;;71.85;46.97;;;19.60;73.50;;;;;;4951289;28;20035;-59
2023/12/15 02:41:35;;;;;;;72.90;48.72;;;19.60;73.50;;;;;;4951165;28;20266;-59
2023/12/15 02:44:00;;;;;;;73.35;49.85;;;19.60;73.70;;;;;;4950818;28;20089;-59
2023/12/15 02:46:26;;;;;;;79.07;52.08;;;19.60;73.40;;;;;;4950505;28;20109;-60
2023/12/15 02:48:52;;;;;;;77.53;51.47;;;19.60;73.20;;;;;;4951073;28;20104;-56
2023/12/15 02:51:28;;;;;;;76.70;48.90;;;19.60;73.30;;;;;;4951207;28;20071;-60
2023/12/15 02:53:54;;;;;;;72.05;48.08;;;19.70;73.30;;;;;;4942927;28;20027;-60
2023/12/15 02:56:19;;;;;;;69.68;47.45;;;19.70;73.30;;;;;;4950762;28;20023;-62
2023/12/15 02:58:45;;;;;;;66.38;43.30;;;19.60;73.40;;;;;;4933052;28;20168;-59
2023/12/15 03:01:11;;;;;;;60.30;40.28;;;19.70;74.20;;;;;;4952367;28;20483;-60
2023/12/15 03:03:36;;;;;;;66.53;39.63;;;19.70;74.30;;;;;;4950592;28;20053;-60
2023/12/15 03:06:02;;;;;;;52.80;34.30;;;19.70;74.50;;;;;;4950260;28;20031;-59
2023/12/15 03:08:28;;;;;;;60.67;39.78;;;19.70;74.60;;;;;;4950780;28;20096;-58
2023/12/15 03:10:57;;;;;;;60.42;39.85;;;19.70;74.30;;;;;;4942840;28;20034;-58
2023/12/15 03:13:28;;;;;;;55.13;38.17;;;19.60;74.20;;;;;;4950664;28;20035;-59
2023/12/15 03:15:54;;;;;;;55.33;37.47;;;19.70;74.50;;;;;;4942055;28;20019;-59
2023/12/15 03:18:19;;;;;;;55.75;37.05;;;19.60;74.70;;;;;;4950745;28;20353;-57
2023/12/15 03:20:45;;;;;;;52.15;34.00;;;19.60;74.70;;;;;;4950552;28;20134;-54
2023/12/15 03:23:11;;;;;;;55.88;35.83;;;19.60;74.90;;;;;;4950531;28;20027;-58
2023/12/15 03:25:36;;;;;;;50.25;30.98;;;19.70;75.00;;;;;;4949437;28;20035;-59
2023/12/15 03:28:02;;;;;;;53.92;36.60;;;19.60;75.00;;;;;;4950561;28;20081;-58
2023/12/15 03:30:28;;;;;;;53.17;34.95;;;19.60;74.90;;;;;;4950386;28;20536;-58
2023/12/15 03:32:53;;;;;;;50.92;33.55;;;19.60;74.70;;;;;;4954656;28;20046;-54
2023/12/15 03:35:19;;;;;;;59.70;37.22;;;19.60;74.70;;;;;;4949532;28;20054;-57
2023/12/15 03:37:45;;;;;;;57.08;36.85;;;19.60;74.50;;;;;;4950233;28;20031;-57
2023/12/15 03:40:11;;;;;;;46.15;31.08;;;19.50;74.60;;;;;;4950509;28;20106;-58
2023/12/15 03:42:37;;;;;;;54.88;34.22;;;19.60;74.60;;;;;;4950170;28;20035;-61
2023/12/15 03:45:03;;;;;;;51.35;34.13;;;19.60;74.70;;;;;;4949774;28;20567;-57
2023/12/15 03:47:29;;;;;;;41.60;26.33;;;19.60;74.60;;;;;;4949589;28;20081;-59
2023/12/15 03:49:55;;;;;;;50.67;32.67;;;19.60;74.90;;;;;;4950148;28;20031;-61
2023/12/15 03:52:20;;;;;;;43.15;27.60;;;19.50;74.80;;;;;;4950303;28;20031;-61
2023/12/15 03:54:46;;;;;;;39.90;28.50;;;19.50;74.90;;;;;;4947467;28;20038;-61
2023/12/15 03:57:11;;;;;;;43.38;28.65;;;19.60;74.80;;;;;;4944296;28;20027;-61
2023/12/15 03:59:39;;;;;;;47.50;31.63;;;19.50;74.90;;;;;;4949781;28;20110;-57
2023/12/15 04:02:05;;;;;;;38.75;26.15;;;19.50;74.80;;;;;;4950193;28;20034;-57
2023/12/15 04:04:32;;;;;;;40.47;25.77;;;19.50;74.70;;;;;;4949638;28;20024;-59
2023/12/15 04:06:57;;;;;;;49.88;32.88;;;19.50;74.80;;;;;;4949507;28;20762;-58
2023/12/15 04:09:23;;;;;;;46.17;29.52;;;19.50;74.60;;;;;;4949101;28;20032;-58
2023/12/15 04:11:48;;;;;;;39.72;27.95;;;19.50;74.60;;;;;;4949874;28;20077;-58
2023/12/15 04:14:15;;;;;;;42.17;29.52;;;19.50;74.60;;;;;;4949407;29;20461;-58
2023/12/15 04:16:41;;;;;;;46.88;31.27;;;19.50;74.50;;;;;;4948467;28;20026;-58
2023/12/15 04:19:07;;;;;;;51.30;33.92;;;19.50;74.30;;;;;;4950093;28;20394;-60
2023/12/15 04:21:33;;;;;;;39.03;26.88;;;19.50;74.10;;;;;;4949783;28;20071;-60
2023/12/15 04:23:58;;;;;;;51.38;32.90;;;19.50;74.40;;;;;;4949420;28;20031;-62
2023/12/15 04:26:25;;;;;;;40.95;28.58;;;19.60;74.10;;;;;;4949102;28;20077;-63
2023/12/15 04:28:51;;;;;;;41.05;28.60;;;19.50;74.20;;;;;;4949742;28;20023;-60
2023/12/15 04:31:16;;;;;;;41.03;28.80;;;19.50;74.40;;;;;;4949684;28;20034;-59
2023/12/15 04:33:42;;;;;;;42.90;29.17;;;19.60;74.20;;;;;;4949226;28;20510;-59
2023/12/15 04:36:08;;;;;;;38.78;26.35;;;19.60;74.20;;;;;;4949193;28;20051;-59
2023/12/15 04:38:35;;;;;;;43.60;29.10;;;19.60;74.20;;;;;;4949448;28;20030;-55
2023/12/15 04:41:00;;;;;;;37.05;25.67;;;19.60;74.00;;;;;;4949417;28;20426;-60
2023/12/15 04:43:26;;;;;;;41.28;27.50;;;19.60;73.90;;;;;;4931623;29;20027;-58
2023/12/15 04:45:51;;;;;;;41.35;26.27;;;19.60;74.10;;;;;;4948487;28;20503;-59
2023/12/15 04:48:17;;;;;;;39.35;26.98;;;19.60;74.30;;;;;;4949477;28;20031;-60
2023/12/15 04:50:43;;;;;;;43.15;28.83;;;19.60;74.20;;;;;;4949187;28;20023;-58
2023/12/15 04:53:08;;;;;;;34.63;22.33;;;19.70;73.90;;;;;;4949582;28;20027;-58
2023/12/15 04:55:34;;;;;;;32.13;19.75;;;19.60;74.30;;;;;;4931576;29;20410;-56
2023/12/15 04:58:00;;;;;;;25.58;17.77;;;19.60;74.50;;;;;;4949213;28;20422;-58
2023/12/15 05:00:26;;;;;;;28.92;18.30;;;19.60;74.60;;;;;;4949341;28;20074;-63
2023/12/15 05:02:52;;;;;;;26.70;17.75;;;19.50;74.80;;;;;;4949153;28;20055;-63
2023/12/15 05:05:18;;;;;;;30.35;20.50;;;19.50;74.80;;;;;;4948312;28;20042;-62
2023/12/15 05:07:44;;;;;;;23.38;15.77;;;19.50;74.80;;;;;;4949241;28;20027;-56
2023/12/15 05:10:10;;;;;;;29.60;20.48;;;19.50;74.80;;;;;;4949424;28;20023;-66
2023/12/15 05:12:36;;;;;;;44.97;26.73;;;19.50;74.70;;;;;;4948980;28;20039;-61
2023/12/15 05:15:03;;;;;;;37.03;21.15;;;19.50;73.90;;;;;;4948010;28;20039;-59
2023/12/15 05:17:29;;;;;;;31.90;19.92;;;19.50;74.50;;;;;;4970546;28;20028;-57
2023/12/15 05:19:55;;;;;;;33.30;21.77;;;19.50;74.40;;;;;;4949757;28;20044;-56
2023/12/15 05:22:20;;;;;;;23.80;13.68;;;19.50;74.40;;;;;;4949844;28;20491;-61
2023/12/15 05:24:46;;;;;;;21.25;12.55;;;19.50;74.60;;;;;;4948617;28;20020;-62
2023/12/15 05:27:12;;;;;;;19.50;11.90;;;19.50;74.80;;;;;;4951943;28;20110;-62
2023/12/15 05:29:44;;;;;;;18.83;11.10;;;19.40;74.90;;;;;;4952171;28;20070;-62
2023/12/15 05:32:10;;;;;;;24.42;13.52;;;19.40;75.00;;;;;;4955112;28;20408;-62
2023/12/15 05:34:36;;;;;;;16.95;10.90;;;19.40;74.90;;;;;;4950968;28;20081;-61
2023/12/15 05:37:01;;;;;;;18.75;11.18;;;19.40;75.00;;;;;;4950213;28;20080;-62
2023/12/15 05:39:27;;;;;;;25.90;15.57;;;19.40;75.10;;;;;;4951295;28;20027;-62
2023/12/15 05:41:53;;;;;;;14.77;9.55;;;19.30;74.90;;;;;;4951617;28;20490;-62
2023/12/15 05:44:18;;;;;;;16.27;10.20;;;19.40;75.10;;;;;;4950521;28;20035;-62
2023/12/15 05:46:44;;;;;;;16.02;11.07;;;19.30;75.20;;;;;;4951087;28;20168;-60
2023/12/15 05:49:10;;;;;;;13.80;9.10;;;19.30;75.10;;;;;;4950821;28;20035;-60
2023/12/15 05:51:37;;;;;;;18.95;12.45;;;19.30;75.20;;;;;;4951634;28;20038;-61
2023/12/15 05:54:02;;;;;;;19.15;12.40;;;19.30;75.00;;;;;;4951639;28;20028;-59
2023/12/15 05:56:29;;;;;;;28.88;10.82;;;19.40;74.90;;;;;;4951187;28;20034;-58
2023/12/15 05:58:56;;;;;;;24.02;11.77;;;19.40;75.20;;;;;;4943856;28;20099;-60
2023/12/15 06:01:22;;;;;;;15.43;10.50;;;19.40;75.10;;;;;;4951706;28;20027;-60
2023/12/15 06:03:47;;;;;;;19.80;13.13;;;19.30;75.20;;;;;;4951147;28;20048;-60
2023/12/15 06:06:13;;;;;;;26.38;15.88;;;19.40;74.90;;;;;;4951153;28;20037;-57
2023/12/15 06:08:39;;;;;;;20.58;12.95;;;19.40;74.60;;;;;;4934288;28;20401;-63
2023/12/15 06:11:04;;;;;;;33.33;21.52;;;19.40;74.80;;;;;;4951610;28;20035;-65
2023/12/15 06:13:30;;;;;;;44.47;22.38;;;19.40;74.20;;;;;;4950985;28;20024;-57
2023/12/15 06:15:56;;;;;;;35.65;22.50;;;19.50;74.10;;;;;;4950761;28;20050;-60
2023/12/15 06:18:21;;;;;;;36.42;23.08;;;19.50;73.60;;;;;;4951517;28;20027;-61
2023/12/15 06:20:47;;;;;;;37.13;21.83;;;19.60;73.40;;;;;;4951167;28;20058;-63
2023/12/15 06:23:13;;;;;;;35.63;19.20;;;19.60;73.50;;;;;;4951193;28;20613;-59
2023/12/15 06:25:39;;;;;;;37.92;20.13;;;19.70;74.00;;;;;;4949859;28;20054;-59
2023/12/15 06:28:08;;;;;;;35.95;20.40;;;19.70;73.40;;;;;;4951292;28;20028;-56
2023/12/15 06:30:36;;;;;;;33.92;19.10;;;19.70;73.50;;;;;;4950986;28;20026;-56
2023/12/15 06:33:02;;;;;;;43.35;19.60;;;19.70;73.30;;;;;;4951118;28;20058;-59
2023/12/15 06:35:28;;;;;;;34.60;19.17;;;19.70;73.50;;;;;;4950299;28;20096;-58
2023/12/15 06:37:53;;;;;;;44.50;17.95;;;19.70;73.30;;;;;;4950719;28;20031;-57
2023/12/15 06:40:19;;;;;;;29.02;16.02;;;19.70;73.30;;;;;;4951301;28;20030;-57
2023/12/15 06:42:44;;;;;;;24.98;12.18;;;19.60;73.40;;;;;;4950721;28;20122;-58
2023/12/15 06:45:10;;;;;;;21.85;11.25;;;19.60;73.50;;;;;;4949894;28;20034;-57
2023/12/15 06:47:38;;;;;;;20.25;11.90;;;19.50;73.50;;;;;;4950770;28;20031;-60
2023/12/15 06:50:07;;;;;;;31.90;16.33;;;19.50;73.40;;;;;;4951161;28;20168;-55
2023/12/15 06:52:35;;;;;;;23.52;13.13;;;19.50;73.40;;;;;;4950626;28;20398;-55
2023/12/15 06:55:01;;;;;;;21.77;10.73;;;19.50;73.50;;;;;;4942560;28;20058;-58
2023/12/15 06:57:27;;;;;;;15.68;9.45;;;19.50;73.50;;;;;;4949556;28;20406;-57
2023/12/15 06:59:53;;;;;;;6.93;6.22;;;19.30;62.40;;;;;;4950953;28;20023;-56
2023/12/15 07:02:18;;;;;;;7.50;6.32;;;18.80;54.80;;;;;;4950985;28;20118;-59
2023/12/15 07:04:44;;;;;;;6.75;6.05;;;18.30;55.30;;;;;;4950007;28;20020;-59
2023/12/15 07:07:10;;;;;;;7.03;6.32;;;17.90;52.60;;;;;;4950080;28;20036;-56
2023/12/15 07:09:36;;;;;;;8.35;6.15;;;17.40;52.20;;;;;;4932550;28;20094;-57
2023/12/15 07:12:02;;;;;;;7.30;6.32;;;17.00;52.00;;;;;;4951955;28;20589;-55
2023/12/15 07:14:29;;;;;;;9.13;6.70;;;16.60;53.20;;;;;;4948507;28;20039;-54
2023/12/15 07:16:54;;;;;;;9.18;6.10;;;16.30;51.00;;;;;;4940641;28;20027;-57
2023/12/15 07:19:20;;;;;;;10.40;7.30;;;16.00;49.90;;;;;;4942702;28;20027;-56
2023/12/15 07:21:46;;;;;;;11.07;7.20;;;15.70;51.20;;;;;;4945801;28;20073;-56
2023/12/15 07:24:12;;;;;;;8.20;6.03;;;15.50;51.40;;;;;;4948266;28;20140;-57
2023/12/15 07:26:38;;;;;;;9.60;7.63;;;15.20;51.20;;;;;;4948523;28;20118;-56
2023/12/15 07:29:04;;;;;;;7.20;6.35;;;15.00;51.70;;;;;;4947887;28;20383;-61
2023/12/15 07:31:30;;;;;;;8.27;6.70;;;14.90;51.40;;;;;;4948707;28;20427;-57
2023/12/15 07:33:56;;;;;;;7.90;6.13;;;14.80;51.20;;;;;;4948464;28;20080;-53
2023/12/15 07:36:22;;;;;;;7.15;5.70;;;14.60;52.20;;;;;;4948121;28;20049;-57
2023/12/15 07:38:48;;;;;;;8.30;6.45;;;14.50;52.70;;;;;;4948523;28;20122;-57
2023/12/15 07:41:13;;;;;;;8.45;7.03;;;14.50;53.30;;;;;;4948701;28;20542;-56
2023/12/15 07:43:39;;;;;;;8.20;6.90;;;14.50;54.70;;;;;;4947313;28;20031;-58
2023/12/15 07:46:05;;;;;;;7.85;6.55;;;14.50;52.00;;;;;;4947970;28;20032;-57
2023/12/15 07:48:31;;;;;;;6.68;5.50;;;14.50;50.40;;;;;;4947833;28;20039;-58
2023/12/15 07:50:57;;;;;;;11.90;6.80;;;14.50;50.30;;;;;;4948607;28;20520;-58
2023/12/15 07:53:22;;;;;;;8.35;6.18;;;14.40;50.70;;;;;;4948756;28;20031;-57
2023/12/15 07:55:48;;;;;;;9.27;7.50;;;14.30;50.20;;;;;;4947555;28;20382;-54
2023/12/15 07:58:14;;;;;;;10.18;7.82;;;14.10;49.80;;;;;;4948541;28;20027;-57
2023/12/15 08:00:39;;;;;;;10.93;8.52;;;14.10;54.60;;;;;;4948228;28;20110;-59
2023/12/15 08:03:05;;;;;;;13.52;8.02;;;14.30;59.20;;;;;;4948190;28;20556;-59
2023/12/15 08:05:32;;;;;;;14.23;8.18;;;14.70;61.50;;;;;;4947504;28;20031;-57
2023/12/15 08:07:58;;;;;;;12.70;7.63;;;15.10;62.10;;;;;;4948284;28;20344;-59
2023/12/15 08:10:26;;;;;;;12.93;6.82;;;15.40;61.60;;;;;;4948414;28;20356;-59
2023/12/15 08:12:52;;;;;;;9.90;7.53;;;15.70;61.30;;;;;;4948039;28;20020;-59
2023/12/15 08:15:19;;;;;;;9.18;6.38;;;16.00;61.00;;;;;;4930043;29;20039;-59
2023/12/15 08:17:44;;;;;;;7.88;5.82;;;16.20;60.70;;;;;;4947674;28;20031;-59
2023/12/15 08:20:10;;;;;;;9.27;5.88;;;16.40;60.70;;;;;;4948416;28;20379;-60
2023/12/15 08:22:36;;;;;;;22.40;10.18;;;16.60;60.70;;;;;;4947911;28;20491;-58
2023/12/15 08:25:02;;;;;;;19.65;10.13;;;16.80;66.00;;;;;;4947457;28;20402;-57
2023/12/15 08:27:27;;;;;;;36.38;9.30;;;17.20;66.50;;;;;;4947696;28;20126;-55
2023/12/15 08:29:56;;;;;;;31.42;10.02;;;17.50;67.00;;;;;;4947508;28;20065;-58
2023/12/15 08:32:22;;;;;;;22.80;9.10;;;17.70;67.30;;;;;;4930886;29;20392;-59
2023/12/15 08:34:48;;;;;;;25.42;9.65;;;17.80;66.90;;;;;;4947612;28;20035;-66
2023/12/15 08:37:14;;;;;;;21.02;9.27;;;18.00;67.60;;;;;;4947532;28;20046;-63
2023/12/15 08:39:39;;;;;;;48.90;9.50;;;18.10;67.40;;;;;;4947671;28;20030;-57
2023/12/15 08:42:05;;;;;;;29.05;9.23;;;18.20;66.90;;;;;;4947932;28;20035;-56
2023/12/15 08:44:31;;;;;;;28.25;10.32;;;18.20;66.60;;;;;;4947339;28;20081;-56
2023/12/15 08:46:56;;;;;;;41.63;12.00;;;18.20;66.80;;;;;;4947360;28;20109;-55
2023/12/15 08:49:22;;;;;;;31.50;11.27;;;18.20;66.70;;;;;;4947863;28;20031;-59
2023/12/15 08:51:49;;;;;;;30.55;11.13;;;18.20;65.90;;;;;;4947534;28;20020;-56
2023/12/15 08:54:15;;;;;;;30.90;9.95;;;18.20;67.30;;;;;;4947436;28;20137;-55
2023/12/15 08:56:41;;;;;;;33.17;9.73;;;18.10;68.00;;;;;;4947204;28;20058;-57
2023/12/15 08:59:06;;;;;;;21.60;8.88;;;18.10;67.90;;;;;;4947845;28;20035;-57
2023/12/15 09:01:33;;;;;;;27.45;8.18;;;18.10;67.80;;;;;;4950285;28;20023;-56
2023/12/15 09:03:59;;;;;;;25.17;8.20;;;18.00;67.80;;;;;;4950716;28;20034;-56
2023/12/15 09:06:25;;;;;;;26.52;7.43;;;18.00;67.60;;;;;;4950352;28;20027;-54
2023/12/15 09:08:50;;;;;;;23.40;6.63;;;18.00;67.60;;;;;;4951267;28;20035;-56
2023/12/15 09:11:16;;;;;;;16.02;5.70;;;18.00;67.40;;;;;;4933451;28;20028;-55
2023/12/15 09:13:41;;;;;;;15.13;5.78;;;18.00;67.40;;;;;;4950218;28;20172;-56
2023/12/15 09:16:07;;;;;;;18.38;5.80;;;18.00;67.40;;;;;;4950109;28;20118;-54
2023/12/15 09:18:32;;;;;;;21.27;6.55;;;18.00;67.40;;;;;;4950577;28;20024;-55
2023/12/15 09:21:00;;;;;;;16.42;6.22;;;18.00;67.30;;;;;;4951193;28;20027;-55
2023/12/15 09:23:25;;;;;;;18.20;5.90;;;18.00;67.30;;;;;;4950862;28;20035;-57
2023/12/15 09:25:52;;;;;;;11.95;5.07;;;18.10;67.30;;;;;;4949907;28;20115;-55
2023/12/15 09:28:18;;;;;;;17.00;5.40;;;18.10;67.20;;;;;;4951187;28;20047;-52
2023/12/15 09:30:43;;;;;;;12.90;4.75;;;18.10;67.20;;;;;;4951165;28;20406;-55
2023/12/15 09:33:10;;;;;;;10.35;4.15;;;18.10;67.10;;;;;;4951135;28;20121;-53
2023/12/15 09:35:35;;;;;;;11.38;4.45;;;18.10;67.10;;;;;;4950120;28;20110;-56
2023/12/15 09:38:03;;;;;;;9.45;4.28;;;18.20;67.20;;;;;;4950764;28;20106;-57
2023/12/15 09:40:32;;;;;;;8.77;3.45;;;18.20;67.20;;;;;;4950684;28;20032;-55
2023/12/15 09:42:57;;;;;;;8.23;4.00;;;18.20;67.20;;;;;;4942893;28;20027;-54
2023/12/15 09:45:23;;;;;;;16.48;4.65;;;18.20;67.10;;;;;;4949772;28;20320;-57
2023/12/15 09:47:51;;;;;;;8.32;3.97;;;18.30;67.00;;;;;;4950275;28;20615;-57
2023/12/15 09:50:20;;;;;;;10.55;3.53;;;18.30;66.90;;;;;;4950639;28;20031;-57
2023/12/15 09:52:46;;;;;;;9.55;3.42;;;18.20;66.90;;;;;;4950429;28;20049;-56
2023/12/15 09:55:12;;;;;;;6.68;3.10;;;18.30;67.00;;;;;;4949747;28;20428;-56
2023/12/15 09:57:39;;;;;;;8.25;3.35;;;18.30;67.00;;;;;;4950117;28;20042;-57
2023/12/15 10:00:07;;;;;;;6.20;3.10;;;18.30;66.90;;;;;;4950955;28;20037;-56
2023/12/15 10:02:35;;;;;;;6.65;2.53;;;18.30;66.90;;;;;;4950652;28;20035;-57
2023/12/15 10:05:01;;;;;;;6.63;2.90;;;18.30;66.90;;;;;;4950365;28;20145;-57
2023/12/15 10:07:28;;;;;;;5.93;2.15;;;18.30;66.90;;;;;;4950064;28;20494;-55
2023/12/15 10:09:54;;;;;;;6.72;2.33;;;18.30;66.90;;;;;;4950090;28;20649;-58
2023/12/15 10:12:20;;;;;;;6.93;2.80;;;18.30;66.90;;;;;;4949901;28;20031;-53
2023/12/15 10:14:46;;;;;;;7.80;2.88;;;18.20;66.90;;;;;;4949462;28;20118;-55
2023/12/15 10:17:12;;;;;;;3.47;2.35;;;18.30;66.90;;;;;;4949780;28;20027;-56
2023/12/15 10:19:38;;;;;;;13.07;2.17;;;18.30;66.90;;;;;;4949938;28;20031;-54
2023/12/15 10:22:05;;;;;;;3.97;1.75;;;18.30;66.80;;;;;;4949854;28;20511;-53
2023/12/15 10:24:33;;;;;;;3.22;1.70;;;18.30;66.90;;;;;;4949481;28;20027;-55
2023/12/15 10:27:02;;;;;;;3.45;1.50;;;18.30;66.90;;;;;;4942187;28;20035;-55
2023/12/15 10:29:28;;;;;;;4.43;1.30;;;18.30;66.90;;;;;;4949961;28;20030;-54
2023/12/15 10:31:54;;;;;;;1.90;1.40;;;18.30;66.90;;;;;;4949423;28;20090;-53
2023/12/15 10:34:25;;;;;;;3.47;1.40;;;18.30;67.00;;;;;;4949460;28;20107;-54
2023/12/15 10:36:51;;;;;;;2.80;1.35;;;18.30;66.90;;;;;;4949034;28;20027;-54
2023/12/15 10:39:17;;;;;;;2.42;1.42;;;18.20;67.00;;;;;;4949657;28;20161;-55
2023/12/15 10:41:44;;;;;;;3.47;1.35;;;18.30;67.00;;;;;;4949533;28;20465;-52
2023/12/15 10:44:13;;;;;;;9.93;3.08;;;18.30;67.00;;;;;;4949297;28;20089;-54
2023/12/15 10:46:42;;;;;;;11.43;4.38;;;18.30;67.60;;;;;;4948788;28;20039;-53
2023/12/15 10:49:09;;;;;;;11.00;3.70;;;18.40;67.70;;;;;;4949704;28;20032;-57
2023/12/15 10:51:38;;;;;;;8.55;4.03;;;18.50;67.80;;;;;;4949369;28;20020;-55
2023/12/15 10:54:05;;;;;;;8.75;3.03;;;18.50;68.20;;;;;;4949578;28;20035;-53
2023/12/15 10:56:32;;;;;;;9.13;3.85;;;18.50;68.10;;;;;;4949095;28;20035;-55
2023/12/15 10:58:59;;;;;;;15.70;4.20;;;18.50;68.30;;;;;;4949478;28;20038;-52
2023/12/15 11:01:28;;;;;;;10.77;3.78;;;18.60;68.10;;;;;;4950377;28;20032;-56
2023/12/15 11:03:54;;;;;;;8.90;3.22;;;18.70;67.30;;;;;;4951540;28;20571;-57
2023/12/15 11:06:46;;;;;;;9.00;3.95;;;18.90;68.50;;;;;;4952263;28;20098;-58
2023/12/15 11:09:24;;;;;;;6.55;3.10;;;18.90;68.00;;;;;;4947977;28;20253;-56
2023/12/15 11:11:51;;;;;;;7.82;6.28;;;18.90;67.90;;;;;;4948507;28;20170;-55
2023/12/15 11:14:17;;;;;;;7.30;5.97;;;18.70;61.80;;;;;;4948689;28;20055;-56
2023/12/15 11:16:45;;;;;;;10.98;6.40;;;18.50;60.60;;;;;;4948345;28;20152;-56
2023/12/15 11:19:10;;;;;;;5.47;4.10;;;18.40;60.20;;;;;;4951470;28;20126;-59
2023/12/15 11:21:36;;;;;;;8.98;4.70;;;18.20;60.90;;;;;;4944891;28;20114;-56
2023/12/15 11:24:04;;;;;;;6.63;3.40;;;18.10;61.80;;;;;;4951514;28;20043;-56
2023/12/15 11:26:37;;;;;;;29.38;5.65;;;18.00;61.80;;;;;;4953800;28;20504;-58
2023/12/15 11:29:07;;;;;;;9.65;5.95;;;18.00;66.50;;;;;;4944933;28;20035;-57
2023/12/15 11:31:36;;;;;;;11.65;6.00;;;18.10;66.60;;;;;;4943855;28;20020;-57
2023/12/15 11:34:05;;;;;;;15.35;6.82;;;18.20;66.10;;;;;;4945936;28;20027;-55
2023/12/15 11:36:37;;;;;;;9.52;5.53;;;18.50;66.40;;;;;;4947307;28;20035;-56
2023/12/15 11:39:04;;;;;;;13.13;5.35;;;18.70;66.30;;;;;;4942051;28;20132;-58
2023/12/15 11:41:31;;;;;;;6.15;4.22;;;19.00;65.90;;;;;;4949034;28;20038;-56
2023/12/15 11:44:00;;;;;;;6.93;3.95;;;19.20;65.50;;;;;;4941026;28;20036;-57
2023/12/15 11:46:26;;;;;;;9.40;3.92;;;19.50;65.10;;;;;;4948091;28;20127;-56
2023/12/15 11:48:53;;;;;;;8.38;3.53;;;;;;;;;;4948726;28;20019;-57
2023/12/15 11:51:22;;;;;;;6.07;2.97;;;;;;;;;;4948702;29;20030;-56
2023/12/15 11:53:49;;;;;;;4.78;3.00;;;;;;;;;;4947960;28;20024;-55
2023/12/15 11:56:17;;;;;;;6.03;2.78;;;;;;;;;;4947583;28;20069;-57
2023/12/15 11:58:43;;;;;;;10.27;3.00;;;;;;;;;;4947252;29;20019;-57
2023/12/15 12:01:10;;;;;;;4.13;2.58;;;;;;;;;;4949068;29;20394;-54
2023/12/15 12:03:36;;;;;;;5.45;2.20;;;;;;;;;;4949010;28;20607;-56
2023/12/15 12:06:08;;;;;;;4.55;2.50;;;;;;;;;;4947544;28;20058;-54
2023/12/15 12:08:35;;;;;;;4.90;2.33;;;;;;;;;;4947106;29;20448;-57
2023/12/15 12:11:01;;;;;;;6.00;2.30;;;;;;;;;;4948580;28;20463;-58
2023/12/15 12:13:32;;;;;;;4.20;2.50;;;;;;;;;;4948873;28;20023;-58
2023/12/15 12:15:58;;;;;;;6.10;2.00;;;;;;;;;;4948392;29;20118;-57
2023/12/15 12:18:25;;;;;;;4.45;1.65;;;;;;;;;;4949118;28;20027;-55
2023/12/15 12:20:58;;;;;;;3.22;1.90;;;;;;;;;;4949048;28;20066;-58
2023/12/15 12:23:27;;;;;;;2.88;1.80;;;;;;;;;;4949201;28;20058;-56
2023/12/15 12:25:53;;;;;;;2.67;1.40;;;;;;;;;;4930657;28;20027;-55
2023/12/15 12:28:25;;;;;;;3.53;1.70;;;;;;;;;;4948804;29;20084;-55
2023/12/15 12:30:52;;;;;;;3.97;1.60;;;;;;;;;;4948756;29;20068;-57
2023/12/15 12:33:19;;;;;;;3.15;1.48;;;;;;;;;;4948765;28;20024;-57